sensor_id;sensor_type;location;lat;lon;timestamp;P1;durP1;ratioP1;P2;durP2;ratioP2
22687;SDS011;11511;51.514;7.080;2023-07-20T01:04:04;6.47;;;3.65;;
22687;SDS011;11511;51.514;7.080;2023-07-20T01:06:39;7.35;;;3.58;;
22687;SDS011;11511;51.514;7.080;2023-07-20T05:38:06;12.18;;;10.57;;
22687;SDS011;11511;51.514;7.080;2023-07-20T05:40:35;12.90;;;10.35;;
22687;SDS011;11511;51.514;7.080;2023-07-20T05:43:08;11.50;;;10.30;;
22687;SDS011;11511;51.514;7.080;2023-07-20T05:45:43;11.00;;;9.45;;
22687;SDS011;11511;51.514;7.080;2023-07-20T05:48:15;11.32;;;9.18;;
22687;SDS011;11511;51.514;7.080;2023-07-20T05:50:42;12.90;;;9.10;;
22687;SDS011;11511;51.514;7.080;2023-07-20T05:53:13;10.27;;;8.40;;
22687;SDS011;11511;51.514;7.080;2023-07-20T05:55:40;9.65;;;8.70;;
22687;SDS011;11511;51.514;7.080;2023-07-20T05:58:29;10.00;;;9.00;;
22687;SDS011;11511;51.514;7.080;2023-07-20T06:01:10;8.25;;;7.43;;
22687;SDS011;11511;51.514;7.080;2023-07-20T06:03:56;8.73;;;7.82;;
22687;SDS011;11511;51.514;7.080;2023-07-20T06:10:01;8.63;;;7.80;;
22687;SDS011;11511;51.514;7.080;2023-07-20T06:12:45;9.95;;;9.00;;
22687;SDS011;11511;51.514;7.080;2023-07-20T06:18:17;11.90;;;10.70;;
22687;SDS011;11511;51.514;7.080;2023-07-20T06:20:50;12.18;;;10.35;;
22687;SDS011;11511;51.514;7.080;2023-07-20T06:23:26;16.48;;;14.77;;
22687;SDS011;11511;51.514;7.080;2023-07-20T06:25:53;16.23;;;14.60;;
22687;SDS011;11511;51.514;7.080;2023-07-20T06:28:18;14.88;;;13.38;;
22687;SDS011;11511;51.514;7.080;2023-07-20T06:31:00;12.75;;;11.45;;
22687;SDS011;11511;51.514;7.080;2023-07-20T06:33:33;11.32;;;10.02;;
22687;SDS011;11511;51.514;7.080;2023-07-20T06:36:00;10.25;;;9.18;;
22687;SDS011;11511;51.514;7.080;2023-07-20T06:38:55;10.27;;;9.27;;
22687;SDS011;11511;51.514;7.080;2023-07-20T06:41:48;10.75;;;7.90;;
22687;SDS011;11511;51.514;7.080;2023-07-20T06:44:27;8.43;;;7.50;;
22687;SDS011;11511;51.514;7.080;2023-07-20T06:47:06;11.38;;;10.18;;
22687;SDS011;11511;51.514;7.080;2023-07-20T06:49:33;8.52;;;7.63;;
22687;SDS011;11511;51.514;7.080;2023-07-20T06:52:12;9.30;;;8.40;;
22687;SDS011;11511;51.514;7.080;2023-07-20T06:54:42;11.05;;;9.10;;
22687;SDS011;11511;51.514;7.080;2023-07-20T06:57:27;10.90;;;9.68;;
22687;SDS011;11511;51.514;7.080;2023-07-20T06:59:57;11.23;;;9.80;;
22687;SDS011;11511;51.514;7.080;2023-07-20T07:06:04;11.23;;;9.65;;
22687;SDS011;11511;51.514;7.080;2023-07-20T07:09:07;11.75;;;9.52;;
22687;SDS011;11511;51.514;7.080;2023-07-20T07:12:04;12.32;;;9.82;;
22687;SDS011;11511;51.514;7.080;2023-07-20T07:15:03;12.10;;;10.57;;
22687;SDS011;11511;51.514;7.080;2023-07-20T07:17:34;17.40;;;13.20;;
22687;SDS011;11511;51.514;7.080;2023-07-20T07:20:30;14.50;;;13.02;;
22687;SDS011;11511;51.514;7.080;2023-07-20T07:23:37;15.98;;;14.35;;
22687;SDS011;11511;51.514;7.080;2023-07-20T07:26:11;17.77;;;15.95;;
22687;SDS011;11511;51.514;7.080;2023-07-20T07:29:03;17.65;;;15.85;;
22687;SDS011;11511;51.514;7.080;2023-07-20T07:31:32;17.13;;;15.52;;
22687;SDS011;11511;51.514;7.080;2023-07-20T07:34:23;16.27;;;14.57;;
22687;SDS011;11511;51.514;7.080;2023-07-20T07:36:54;17.08;;;15.00;;
22687;SDS011;11511;51.514;7.080;2023-07-20T07:39:23;17.17;;;15.40;;
22687;SDS011;11511;51.514;7.080;2023-07-20T07:42:01;17.13;;;15.40;;
22687;SDS011;11511;51.514;7.080;2023-07-20T07:44:52;17.50;;;14.85;;
22687;SDS011;11511;51.514;7.080;2023-07-20T07:47:43;17.27;;;14.93;;
22687;SDS011;11511;51.514;7.080;2023-07-20T07:50:13;14.65;;;12.30;;
22687;SDS011;11511;51.514;7.080;2023-07-20T07:52:45;12.90;;;11.32;;
22687;SDS011;11511;51.514;7.080;2023-07-20T07:55:34;15.63;;;14.00;;
22687;SDS011;11511;51.514;7.080;2023-07-20T07:58:07;20.33;;;18.27;;
22687;SDS011;11511;51.514;7.080;2023-07-20T08:00:36;23.65;;;21.15;;
22687;SDS011;11511;51.514;7.080;2023-07-20T08:03:16;21.88;;;18.95;;
22687;SDS011;11511;51.514;7.080;2023-07-20T08:05:45;21.67;;;19.40;;
22687;SDS011;11511;51.514;7.080;2023-07-20T08:08:18;20.70;;;18.73;;
22687;SDS011;11511;51.514;7.080;2023-07-20T08:10:50;15.82;;;14.27;;
22687;SDS011;11511;51.514;7.080;2023-07-20T08:13:18;7.53;;;6.82;;
22687;SDS011;11511;51.514;7.080;2023-07-20T08:15:51;5.10;;;4.70;;
22687;SDS011;11511;51.514;7.080;2023-07-20T08:18:20;5.40;;;4.90;;
22687;SDS011;11511;51.514;7.080;2023-07-20T08:20:49;7.40;;;6.70;;
22687;SDS011;11511;51.514;7.080;2023-07-20T08:23:17;8.30;;;7.55;;
22687;SDS011;11511;51.514;7.080;2023-07-20T08:25:53;5.75;;;5.35;;
22687;SDS011;11511;51.514;7.080;2023-07-20T08:28:27;5.88;;;5.20;;
22687;SDS011;11511;51.514;7.080;2023-07-20T08:34:28;5.32;;;4.30;;
22687;SDS011;11511;51.514;7.080;2023-07-20T08:37:15;4.43;;;3.03;;
22687;SDS011;11511;51.514;7.080;2023-07-20T08:39:43;1.98;;;1.75;;
22687;SDS011;11511;51.514;7.080;2023-07-20T08:46:11;3.05;;;2.85;;
22687;SDS011;11511;51.514;7.080;2023-07-20T08:48:49;2.47;;;1.73;;
22687;SDS011;11511;51.514;7.080;2023-07-20T08:51:30;1.90;;;1.80;;
22687;SDS011;11511;51.514;7.080;2023-07-20T08:54:41;2.15;;;1.95;;
22687;SDS011;11511;51.514;7.080;2023-07-20T09:04:11;1.08;;;1.08;;
22687;SDS011;11511;51.514;7.080;2023-07-20T09:06:52;0.88;;;0.70;;
22687;SDS011;11511;51.514;7.080;2023-07-20T09:09:23;2.03;;;0.90;;
22687;SDS011;11511;51.514;7.080;2023-07-20T09:11:59;0.70;;;0.70;;
22687;SDS011;11511;51.514;7.080;2023-07-20T09:14:37;1.85;;;1.00;;
22687;SDS011;11511;51.514;7.080;2023-07-20T09:20:45;1.70;;;0.80;;
22687;SDS011;11511;51.514;7.080;2023-07-20T09:23:41;0.70;;;0.50;;
22687;SDS011;11511;51.514;7.080;2023-07-20T09:26:12;1.00;;;0.50;;
22687;SDS011;11511;51.514;7.080;2023-07-20T09:28:42;1.58;;;0.77;;
22687;SDS011;11511;51.514;7.080;2023-07-20T09:31:16;1.65;;;0.73;;
22687;SDS011;11511;51.514;7.080;2023-07-20T09:33:59;0.75;;;0.55;;
22687;SDS011;11511;51.514;7.080;2023-07-20T09:36:38;1.20;;;0.50;;
22687;SDS011;11511;51.514;7.080;2023-07-20T09:39:08;3.22;;;0.70;;
22687;SDS011;11511;51.514;7.080;2023-07-20T09:44:55;4.15;;;0.73;;
22687;SDS011;11511;51.514;7.080;2023-07-20T09:47:30;0.75;;;0.50;;
22687;SDS011;11511;51.514;7.080;2023-07-20T09:50:05;0.47;;;0.38;;
22687;SDS011;11511;51.514;7.080;2023-07-20T09:52:40;1.33;;;0.50;;
22687;SDS011;11511;51.514;7.080;2023-07-20T09:55:36;0.65;;;0.35;;
22687;SDS011;11511;51.514;7.080;2023-07-20T09:58:08;0.30;;;0.30;;
22687;SDS011;11511;51.514;7.080;2023-07-20T10:00:40;0.68;;;0.30;;
22687;SDS011;11511;51.514;7.080;2023-07-20T10:03:24;0.95;;;0.45;;
22687;SDS011;11511;51.514;7.080;2023-07-20T10:06:23;0.73;;;0.45;;
22687;SDS011;11511;51.514;7.080;2023-07-20T10:08:53;0.95;;;0.30;;
22687;SDS011;11511;51.514;7.080;2023-07-20T10:11:22;0.38;;;0.38;;
22687;SDS011;11511;51.514;7.080;2023-07-20T10:13:55;0.40;;;0.30;;
22687;SDS011;11511;51.514;7.080;2023-07-20T10:16:31;0.70;;;0.30;;
22687;SDS011;11511;51.514;7.080;2023-07-20T10:19:31;0.55;;;0.30;;
22687;SDS011;11511;51.514;7.080;2023-07-20T10:22:03;0.43;;;0.30;;
22687;SDS011;11511;51.514;7.080;2023-07-20T10:24:46;2.15;;;0.50;;
22687;SDS011;11511;51.514;7.080;2023-07-20T10:27:13;1.30;;;0.50;;
22687;SDS011;11511;51.514;7.080;2023-07-20T10:29:40;1.52;;;0.45;;
22687;SDS011;11511;51.514;7.080;2023-07-20T10:32:19;3.05;;;0.30;;
22687;SDS011;11511;51.514;7.080;2023-07-20T10:34:52;0.95;;;0.40;;
22687;SDS011;11511;51.514;7.080;2023-07-20T10:40:55;0.80;;;0.35;;
22687;SDS011;11511;51.514;7.080;2023-07-20T10:43:30;1.20;;;0.30;;
22687;SDS011;11511;51.514;7.080;2023-07-20T10:52:49;1.05;;;0.40;;
22687;SDS011;11511;51.514;7.080;2023-07-20T10:55:44;2.17;;;0.57;;
22687;SDS011;11511;51.514;7.080;2023-07-20T10:58:29;0.95;;;0.40;;
22687;SDS011;11511;51.514;7.080;2023-07-20T11:01:12;1.35;;;0.40;;
22687;SDS011;11511;51.514;7.080;2023-07-20T11:03:48;0.88;;;0.52;;
22687;SDS011;11511;51.514;7.080;2023-07-20T11:14:56;0.85;;;0.38;;
22687;SDS011;11511;51.514;7.080;2023-07-20T11:17:29;0.30;;;0.30;;
22687;SDS011;11511;51.514;7.080;2023-07-20T11:20:03;1.88;;;0.35;;
22687;SDS011;11511;51.514;7.080;2023-07-20T11:22:42;0.70;;;0.32;;
22687;SDS011;11511;51.514;7.080;2023-07-20T11:25:10;0.93;;;0.40;;
22687;SDS011;11511;51.514;7.080;2023-07-20T11:27:43;0.88;;;0.32;;
22687;SDS011;11511;51.514;7.080;2023-07-20T11:33:40;0.70;;;0.40;;
22687;SDS011;11511;51.514;7.080;2023-07-20T11:36:18;0.40;;;0.32;;
22687;SDS011;11511;51.514;7.080;2023-07-20T11:42:08;0.65;;;0.52;;
22687;SDS011;11511;51.514;7.080;2023-07-20T11:44:44;1.85;;;0.65;;
22687;SDS011;11511;51.514;7.080;2023-07-20T11:47:31;0.95;;;0.50;;
22687;SDS011;11511;51.514;7.080;2023-07-20T11:50:07;2.00;;;0.30;;
22687;SDS011;11511;51.514;7.080;2023-07-20T11:52:43;0.82;;;0.50;;
22687;SDS011;11511;51.514;7.080;2023-07-20T11:55:11;0.73;;;0.50;;
22687;SDS011;11511;51.514;7.080;2023-07-20T12:01:05;0.60;;;0.47;;
22687;SDS011;11511;51.514;7.080;2023-07-20T12:03:31;0.80;;;0.32;;
22687;SDS011;11511;51.514;7.080;2023-07-20T12:06:05;1.13;;;0.35;;
22687;SDS011;11511;51.514;7.080;2023-07-20T12:12:08;0.73;;;0.40;;
22687;SDS011;11511;51.514;7.080;2023-07-20T12:14:37;0.40;;;0.30;;
22687;SDS011;11511;51.514;7.080;2023-07-20T12:17:03;0.68;;;0.43;;
22687;SDS011;11511;51.514;7.080;2023-07-20T12:19:30;0.98;;;0.70;;
22687;SDS011;11511;51.514;7.080;2023-07-20T12:21:58;0.55;;;0.40;;
22687;SDS011;11511;51.514;7.080;2023-07-20T12:24:24;1.85;;;0.52;;
22687;SDS011;11511;51.514;7.080;2023-07-20T12:26:55;0.77;;;0.50;;
22687;SDS011;11511;51.514;7.080;2023-07-20T12:29:23;1.10;;;0.50;;
22687;SDS011;11511;51.514;7.080;2023-07-20T12:31:49;1.95;;;0.60;;
22687;SDS011;11511;51.514;7.080;2023-07-20T12:34:15;2.40;;;0.50;;
22687;SDS011;11511;51.514;7.080;2023-07-20T12:36:53;3.55;;;0.50;;
22687;SDS011;11511;51.514;7.080;2023-07-20T12:39:21;2.08;;;0.40;;
22687;SDS011;11511;51.514;7.080;2023-07-20T12:41:50;0.50;;;0.40;;
22687;SDS011;11511;51.514;7.080;2023-07-20T12:44:19;0.98;;;0.60;;
22687;SDS011;11511;51.514;7.080;2023-07-20T12:46:45;0.63;;;0.50;;
22687;SDS011;11511;51.514;7.080;2023-07-20T12:49:11;2.75;;;1.20;;
22687;SDS011;11511;51.514;7.080;2023-07-20T12:51:37;1.55;;;0.40;;
22687;SDS011;11511;51.514;7.080;2023-07-20T12:54:02;0.70;;;0.45;;
22687;SDS011;11511;51.514;7.080;2023-07-20T12:56:28;0.57;;;0.47;;
22687;SDS011;11511;51.514;7.080;2023-07-20T12:58:54;3.08;;;0.65;;
22687;SDS011;11511;51.514;7.080;2023-07-20T13:01:37;0.88;;;0.50;;
22687;SDS011;11511;51.514;7.080;2023-07-20T13:04:07;0.98;;;0.50;;
22687;SDS011;11511;51.514;7.080;2023-07-20T13:06:34;0.40;;;0.40;;
22687;SDS011;11511;51.514;7.080;2023-07-20T13:09:01;2.47;;;0.50;;
22687;SDS011;11511;51.514;7.080;2023-07-20T13:11:28;0.50;;;0.50;;
22687;SDS011;11511;51.514;7.080;2023-07-20T13:13:54;1.92;;;0.70;;
22687;SDS011;11511;51.514;7.080;2023-07-20T13:16:21;2.70;;;0.60;;
22687;SDS011;11511;51.514;7.080;2023-07-20T13:18:47;1.67;;;0.50;;
22687;SDS011;11511;51.514;7.080;2023-07-20T13:21:15;1.13;;;0.50;;
22687;SDS011;11511;51.514;7.080;2023-07-20T13:23:54;0.98;;;0.50;;
22687;SDS011;11511;51.514;7.080;2023-07-20T13:26:55;2.00;;;0.52;;
22687;SDS011;11511;51.514;7.080;2023-07-20T13:29:48;1.58;;;0.45;;
22687;SDS011;11511;51.514;7.080;2023-07-20T13:32:22;1.15;;;0.70;;
22687;SDS011;11511;51.514;7.080;2023-07-20T13:34:58;1.02;;;0.50;;
22687;SDS011;11511;51.514;7.080;2023-07-20T13:40:49;0.93;;;0.50;;
22687;SDS011;11511;51.514;7.080;2023-07-20T13:43:19;1.67;;;0.40;;
22687;SDS011;11511;51.514;7.080;2023-07-20T13:45:51;2.10;;;0.60;;
22687;SDS011;11511;51.514;7.080;2023-07-20T13:48:52;1.02;;;0.50;;
22687;SDS011;11511;51.514;7.080;2023-07-20T13:51:22;1.17;;;0.68;;
22687;SDS011;11511;51.514;7.080;2023-07-20T13:53:52;1.35;;;0.70;;
22687;SDS011;11511;51.514;7.080;2023-07-20T13:56:19;0.85;;;0.60;;
22687;SDS011;11511;51.514;7.080;2023-07-20T13:59:12;2.08;;;0.80;;
22687;SDS011;11511;51.514;7.080;2023-07-20T14:04:41;1.15;;;0.50;;
22687;SDS011;11511;51.514;7.080;2023-07-20T14:07:32;1.35;;;0.70;;
22687;SDS011;11511;51.514;7.080;2023-07-20T14:10:05;2.05;;;1.00;;
22687;SDS011;11511;51.514;7.080;2023-07-20T14:12:32;3.17;;;0.65;;
22687;SDS011;11511;51.514;7.080;2023-07-20T14:15:20;1.42;;;0.55;;
22687;SDS011;11511;51.514;7.080;2023-07-20T14:17:49;3.63;;;0.90;;
22687;SDS011;11511;51.514;7.080;2023-07-20T14:20:15;2.22;;;0.80;;
22687;SDS011;11511;51.514;7.080;2023-07-20T14:22:47;1.38;;;0.90;;
22687;SDS011;11511;51.514;7.080;2023-07-20T14:25:36;1.45;;;0.88;;
22687;SDS011;11511;51.514;7.080;2023-07-20T14:31:38;1.58;;;0.57;;
22687;SDS011;11511;51.514;7.080;2023-07-20T14:34:13;1.30;;;0.60;;
22687;SDS011;11511;51.514;7.080;2023-07-20T14:36:48;0.50;;;0.50;;
22687;SDS011;11511;51.514;7.080;2023-07-20T14:39:16;1.15;;;0.65;;
22687;SDS011;11511;51.514;7.080;2023-07-20T14:42:06;1.00;;;0.60;;
22687;SDS011;11511;51.514;7.080;2023-07-20T14:44:38;1.10;;;0.90;;
22687;SDS011;11511;51.514;7.080;2023-07-20T14:50:32;1.48;;;0.80;;
22687;SDS011;11511;51.514;7.080;2023-07-20T14:53:00;2.40;;;1.00;;
22687;SDS011;11511;51.514;7.080;2023-07-20T14:55:30;1.95;;;1.05;;
22687;SDS011;11511;51.514;7.080;2023-07-20T14:58:05;1.17;;;0.80;;
22687;SDS011;11511;51.514;7.080;2023-07-20T15:00:36;1.55;;;1.10;;
22687;SDS011;11511;51.514;7.080;2023-07-20T15:03:06;1.77;;;1.05;;
22687;SDS011;11511;51.514;7.080;2023-07-20T15:05:38;1.80;;;1.00;;
22687;SDS011;11511;51.514;7.080;2023-07-20T15:08:06;3.22;;;1.20;;
22687;SDS011;11511;51.514;7.080;2023-07-20T15:10:38;2.45;;;1.10;;
22687;SDS011;11511;51.514;7.080;2023-07-20T15:13:04;1.50;;;1.10;;
22687;SDS011;11511;51.514;7.080;2023-07-20T15:15:30;1.35;;;0.90;;
22687;SDS011;11511;51.514;7.080;2023-07-20T15:17:56;1.80;;;1.00;;
22687;SDS011;11511;51.514;7.080;2023-07-20T15:20:21;1.50;;;1.00;;
22687;SDS011;11511;51.514;7.080;2023-07-20T15:25:22;3.57;;;0.90;;
22687;SDS011;11511;51.514;7.080;2023-07-20T15:27:55;3.47;;;1.20;;
22687;SDS011;11511;51.514;7.080;2023-07-20T15:30:28;2.47;;;0.90;;
22687;SDS011;11511;51.514;7.080;2023-07-20T15:32:56;3.58;;;1.10;;
22687;SDS011;11511;51.514;7.080;2023-07-20T15:35:22;2.90;;;0.70;;
22687;SDS011;11511;51.514;7.080;2023-07-20T15:37:57;1.27;;;0.70;;
22687;SDS011;11511;51.514;7.080;2023-07-20T15:40:27;2.25;;;0.77;;
22687;SDS011;11511;51.514;7.080;2023-07-20T15:43:04;1.20;;;0.75;;
22687;SDS011;11511;51.514;7.080;2023-07-20T15:45:31;0.95;;;0.90;;
22687;SDS011;11511;51.514;7.080;2023-07-20T15:47:56;3.92;;;0.77;;
22687;SDS011;11511;51.514;7.080;2023-07-20T15:50:22;1.00;;;0.80;;
22687;SDS011;11511;51.514;7.080;2023-07-20T15:52:48;1.52;;;0.80;;
22687;SDS011;11511;51.514;7.080;2023-07-20T15:55:18;1.73;;;0.90;;
22687;SDS011;11511;51.514;7.080;2023-07-20T15:58:08;2.40;;;0.80;;
22687;SDS011;11511;51.514;7.080;2023-07-20T16:00:38;2.15;;;1.02;;
22687;SDS011;11511;51.514;7.080;2023-07-20T16:03:12;1.20;;;0.90;;
22687;SDS011;11511;51.514;7.080;2023-07-20T16:05:40;1.65;;;1.20;;
22687;SDS011;11511;51.514;7.080;2023-07-20T16:08:09;2.17;;;1.05;;
22687;SDS011;11511;51.514;7.080;2023-07-20T16:10:44;2.45;;;0.90;;
22687;SDS011;11511;51.514;7.080;2023-07-20T16:13:14;3.22;;;0.90;;
22687;SDS011;11511;51.514;7.080;2023-07-20T16:15:49;0.80;;;0.80;;
22687;SDS011;11511;51.514;7.080;2023-07-20T16:18:29;3.08;;;1.00;;
22687;SDS011;11511;51.514;7.080;2023-07-20T16:21:10;1.55;;;1.20;;
22687;SDS011;11511;51.514;7.080;2023-07-20T16:23:37;1.42;;;1.10;;
22687;SDS011;11511;51.514;7.080;2023-07-20T16:28:57;3.67;;;1.17;;
22687;SDS011;11511;51.514;7.080;2023-07-20T16:31:29;3.83;;;1.30;;
22687;SDS011;11511;51.514;7.080;2023-07-20T16:34:11;1.55;;;1.13;;
22687;SDS011;11511;51.514;7.080;2023-07-20T16:36:44;2.45;;;1.10;;
22687;SDS011;11511;51.514;7.080;2023-07-20T16:42:59;1.30;;;0.82;;
22687;SDS011;11511;51.514;7.080;2023-07-20T16:45:50;3.75;;;0.90;;
22687;SDS011;11511;51.514;7.080;2023-07-20T16:48:25;3.35;;;0.90;;
22687;SDS011;11511;51.514;7.080;2023-07-20T16:51:15;1.70;;;0.70;;
22687;SDS011;11511;51.514;7.080;2023-07-20T16:53:48;0.90;;;0.80;;
22687;SDS011;11511;51.514;7.080;2023-07-20T16:56:24;1.48;;;0.90;;
22687;SDS011;11511;51.514;7.080;2023-07-20T16:59:06;1.15;;;0.80;;
22687;SDS011;11511;51.514;7.080;2023-07-20T17:01:51;3.95;;;0.95;;
22687;SDS011;11511;51.514;7.080;2023-07-20T17:04:18;0.80;;;0.80;;
22687;SDS011;11511;51.514;7.080;2023-07-20T17:06:49;3.13;;;0.90;;
22687;SDS011;11511;51.514;7.080;2023-07-20T17:09:20;1.60;;;0.80;;
22687;SDS011;11511;51.514;7.080;2023-07-20T17:11:51;1.75;;;0.80;;
22687;SDS011;11511;51.514;7.080;2023-07-20T17:14:42;1.95;;;0.90;;
22687;SDS011;11511;51.514;7.080;2023-07-20T17:17:16;0.77;;;0.70;;
22687;SDS011;11511;51.514;7.080;2023-07-20T17:19:46;1.05;;;0.70;;
22687;SDS011;11511;51.514;7.080;2023-07-20T17:22:16;2.15;;;0.77;;
22687;SDS011;11511;51.514;7.080;2023-07-20T17:25:08;3.28;;;0.63;;
22687;SDS011;11511;51.514;7.080;2023-07-20T17:30:04;1.95;;;0.82;;
22687;SDS011;11511;51.514;7.080;2023-07-20T17:32:59;1.20;;;1.08;;
22687;SDS011;11511;51.514;7.080;2023-07-20T17:35:28;1.15;;;0.85;;
22687;SDS011;11511;51.514;7.080;2023-07-20T17:38:08;1.23;;;0.80;;
22687;SDS011;11511;51.514;7.080;2023-07-20T17:40:37;1.20;;;0.80;;
22687;SDS011;11511;51.514;7.080;2023-07-20T17:43:08;1.00;;;0.90;;
22687;SDS011;11511;51.514;7.080;2023-07-20T17:49:31;0.82;;;0.57;;
22687;SDS011;11511;51.514;7.080;2023-07-20T17:55:26;1.33;;;0.70;;
22687;SDS011;11511;51.514;7.080;2023-07-20T17:58:29;1.02;;;0.70;;
22687;SDS011;11511;51.514;7.080;2023-07-20T18:04:26;1.10;;;1.00;;
22687;SDS011;11511;51.514;7.080;2023-07-20T18:13:57;2.17;;;1.10;;
22687;SDS011;11511;51.514;7.080;2023-07-20T18:23:47;1.45;;;0.82;;
22687;SDS011;11511;51.514;7.080;2023-07-20T18:29:44;1.05;;;0.80;;
22687;SDS011;11511;51.514;7.080;2023-07-20T18:39:37;1.90;;;0.65;;
22687;SDS011;11511;51.514;7.080;2023-07-20T18:41:58;1.63;;;0.82;;
22687;SDS011;11511;51.514;7.080;2023-07-20T18:44:25;3.00;;;0.88;;
22687;SDS011;11511;51.514;7.080;2023-07-20T18:50:20;0.93;;;0.88;;
22687;SDS011;11511;51.514;7.080;2023-07-20T18:52:46;1.58;;;0.90;;
22687;SDS011;11511;51.514;7.080;2023-07-20T18:55:16;3.15;;;1.00;;
22687;SDS011;11511;51.514;7.080;2023-07-20T19:04:41;1.58;;;1.13;;
22687;SDS011;11511;51.514;7.080;2023-07-20T19:10:37;2.80;;;1.05;;
22687;SDS011;11511;51.514;7.080;2023-07-20T19:13:06;3.65;;;1.00;;
22687;SDS011;11511;51.514;7.080;2023-07-20T19:15:33;2.17;;;1.00;;
22687;SDS011;11511;51.514;7.080;2023-07-20T19:21:30;1.92;;;1.13;;
22687;SDS011;11511;51.514;7.080;2023-07-20T19:24:05;1.20;;;1.10;;
22687;SDS011;11511;51.514;7.080;2023-07-20T19:29:06;1.55;;;0.90;;
22687;SDS011;11511;51.514;7.080;2023-07-20T19:31:32;3.20;;;1.15;;
22687;SDS011;11511;51.514;7.080;2023-07-20T19:34:05;3.00;;;1.20;;
22687;SDS011;11511;51.514;7.080;2023-07-20T19:36:36;3.47;;;1.00;;
22687;SDS011;11511;51.514;7.080;2023-07-20T19:45:22;1.50;;;0.80;;
22687;SDS011;11511;51.514;7.080;2023-07-20T19:47:50;1.35;;;0.90;;
22687;SDS011;11511;51.514;7.080;2023-07-20T19:50:19;1.88;;;0.85;;
22687;SDS011;11511;51.514;7.080;2023-07-20T19:56:22;3.40;;;1.15;;
22687;SDS011;11511;51.514;7.080;2023-07-20T20:01:46;2.17;;;1.10;;
22687;SDS011;11511;51.514;7.080;2023-07-20T20:04:28;3.10;;;1.20;;
22687;SDS011;11511;51.514;7.080;2023-07-20T20:07:08;3.78;;;1.40;;
22687;SDS011;11511;51.514;7.080;2023-07-20T20:13:07;1.45;;;1.15;;
22687;SDS011;11511;51.514;7.080;2023-07-20T20:15:33;1.42;;;1.00;;
22687;SDS011;11511;51.514;7.080;2023-07-20T20:18:10;2.97;;;1.00;;
22687;SDS011;11511;51.514;7.080;2023-07-20T20:20:44;4.32;;;1.13;;
22687;SDS011;11511;51.514;7.080;2023-07-20T20:23:18;2.35;;;1.30;;
22687;SDS011;11511;51.514;7.080;2023-07-20T20:25:53;1.75;;;1.13;;
22687;SDS011;11511;51.514;7.080;2023-07-20T20:28:23;1.88;;;1.02;;
22687;SDS011;11511;51.514;7.080;2023-07-20T20:31:12;1.67;;;1.10;;
22687;SDS011;11511;51.514;7.080;2023-07-20T20:33:46;3.55;;;1.15;;
22687;SDS011;11511;51.514;7.080;2023-07-20T20:36:19;1.10;;;1.00;;
22687;SDS011;11511;51.514;7.080;2023-07-20T20:39:21;2.05;;;1.10;;
22687;SDS011;11511;51.514;7.080;2023-07-20T20:42:08;1.33;;;0.95;;
22687;SDS011;11511;51.514;7.080;2023-07-20T20:51:51;1.30;;;1.20;;
22687;SDS011;11511;51.514;7.080;2023-07-20T20:54:24;2.20;;;1.10;;
22687;SDS011;11511;51.514;7.080;2023-07-20T20:57:05;2.67;;;1.20;;
22687;SDS011;11511;51.514;7.080;2023-07-20T21:03:52;1.35;;;1.00;;
22687;SDS011;11511;51.514;7.080;2023-07-20T21:06:36;2.10;;;1.30;;
22687;SDS011;11511;51.514;7.080;2023-07-20T21:16:54;3.28;;;1.50;;
22687;SDS011;11511;51.514;7.080;2023-07-20T21:33:11;4.88;;;2.80;;
22687;SDS011;11511;51.514;7.080;2023-07-20T21:51:59;3.75;;;3.42;;
22687;SDS011;11511;51.514;7.080;2023-07-20T21:54:38;4.35;;;3.35;;
22687;SDS011;11511;51.514;7.080;2023-07-20T21:57:04;4.80;;;3.50;;
22687;SDS011;11511;51.514;7.080;2023-07-20T21:59:43;4.45;;;3.60;;
22687;SDS011;11511;51.514;7.080;2023-07-20T22:02:14;4.07;;;3.58;;
22687;SDS011;11511;51.514;7.080;2023-07-20T22:04:49;4.63;;;3.50;;
22687;SDS011;11511;51.514;7.080;2023-07-20T22:08:02;3.70;;;3.38;;
22687;SDS011;11511;51.514;7.080;2023-07-20T22:13:38;6.53;;;4.00;;
22687;SDS011;11511;51.514;7.080;2023-07-20T22:16:07;4.32;;;3.92;;
22687;SDS011;11511;51.514;7.080;2023-07-20T22:21:47;4.35;;;3.95;;
22687;SDS011;11511;51.514;7.080;2023-07-20T22:24:48;4.20;;;3.80;;
22687;SDS011;11511;51.514;7.080;2023-07-20T22:27:28;4.75;;;3.92;;
22687;SDS011;11511;51.514;7.080;2023-07-20T22:29:55;4.40;;;4.00;;
22687;SDS011;11511;51.514;7.080;2023-07-20T22:32:27;5.20;;;4.70;;
22687;SDS011;11511;51.514;7.080;2023-07-20T22:35:02;4.40;;;4.00;;
22687;SDS011;11511;51.514;7.080;2023-07-20T22:37:28;4.97;;;4.40;;
22687;SDS011;11511;51.514;7.080;2023-07-20T22:43:17;8.23;;;5.20;;
22687;SDS011;11511;51.514;7.080;2023-07-20T22:45:53;5.78;;;5.18;;
22687;SDS011;11511;51.514;7.080;2023-07-20T22:48:24;5.05;;;4.65;;
22687;SDS011;11511;51.514;7.080;2023-07-20T22:51:07;5.93;;;5.35;;
22687;SDS011;11511;51.514;7.080;2023-07-20T22:53:37;7.07;;;5.75;;
22687;SDS011;11511;51.514;7.080;2023-07-20T22:56:04;5.97;;;5.45;;
22687;SDS011;11511;51.514;7.080;2023-07-20T23:01:10;5.60;;;5.10;;
22687;SDS011;11511;51.514;7.080;2023-07-20T23:03:39;7.10;;;5.38;;
22687;SDS011;11511;51.514;7.080;2023-07-20T23:06:17;5.63;;;4.93;;
22687;SDS011;11511;51.514;7.080;2023-07-20T23:09:31;6.03;;;5.50;;
22687;SDS011;11511;51.514;7.080;2023-07-20T23:12:01;6.30;;;5.70;;
22687;SDS011;11511;51.514;7.080;2023-07-20T23:14:41;7.05;;;6.35;;
22687;SDS011;11511;51.514;7.080;2023-07-20T23:20:02;6.82;;;6.20;;
22687;SDS011;11511;51.514;7.080;2023-07-20T23:30:06;7.45;;;6.65;;
22687;SDS011;11511;51.514;7.080;2023-07-20T23:32:54;7.53;;;6.90;;
22687;SDS011;11511;51.514;7.080;2023-07-20T23:36:01;7.30;;;6.63;;
22687;SDS011;11511;51.514;7.080;2023-07-20T23:39:12;7.53;;;6.78;;
22687;SDS011;11511;51.514;7.080;2023-07-20T23:41:52;8.00;;;7.30;;
22687;SDS011;11511;51.514;7.080;2023-07-20T23:45:22;7.78;;;7.07;;
22687;SDS011;11511;51.514;7.080;2023-07-20T23:47:57;8.45;;;7.65;;
22687;SDS011;11511;51.514;7.080;2023-07-20T23:50:44;8.32;;;7.63;;
22687;SDS011;11511;51.514;7.080;2023-07-20T23:53:26;9.27;;;8.30;;
22687;SDS011;11511;51.514;7.080;2023-07-20T23:56:19;9.13;;;8.32;;
22687;SDS011;11511;51.514;7.080;2023-07-20T23:58:47;9.23;;;8.32;;
